createdAt,value
2018-03-14T00:00:42.218Z,77.00
2018-03-14T00:03:10.456Z,77.56
2018-03-14T00:05:38.718Z,77.86
2018-03-14T00:08:06.951Z,77.17
2018-03-14T00:10:35.191Z,77.59
2018-03-14T00:13:03.449Z,77.29
2018-03-14T00:15:31.695Z,78.32
2018-03-14T00:17:59.936Z,78.27
2018-03-14T00:20:28.535Z,78.68
2018-03-14T00:22:56.784Z,77.74
2018-03-14T00:25:25.028Z,77.88
2018-03-14T00:27:53.281Z,77.61
2018-03-14T00:30:21.522Z,78.37
2018-03-14T00:32:49.771Z,79.18
2018-03-14T00:35:18.787Z,78.99
2018-03-14T00:37:47.796Z,79.23
2018-03-14T00:40:16.056Z,80.01
2018-03-14T00:42:45.064Z,80.34
2018-03-14T00:45:14.074Z,79.53
2018-03-14T00:47:42.323Z,79.47
2018-03-14T00:50:11.376Z,81.32
2018-03-14T00:52:39.765Z,81.06
2018-03-14T00:55:08.017Z,81.19
2018-03-14T00:57:37.036Z,81.21
2018-03-14T01:00:05.294Z,80.52
2018-03-14T01:02:33.553Z,81.59
2018-03-14T01:05:02.559Z,81.62
2018-03-14T01:07:31.576Z,81.84
2018-03-14T01:09:59.828Z,81.50
2018-03-14T01:12:28.891Z,81.18
2018-03-14T01:14:57.096Z,82.96
2018-03-14T01:17:25.337Z,83.02
2018-03-14T01:19:53.586Z,83.41
2018-03-14T01:22:21.841Z,83.42
2018-03-14T01:24:50.848Z,84.12
2018-03-14T01:27:19.876Z,82.98
2018-03-14T01:29:48.116Z,83.40
2018-03-14T01:32:17.142Z,83.22
2018-03-14T01:34:45.403Z,84.05
2018-03-14T01:37:14.416Z,83.72
2018-03-14T01:39:42.662Z,84.24
2018-03-14T01:42:10.908Z,84.80
2018-03-14T01:44:39.157Z,85.05
2018-03-14T01:47:07.396Z,85.51
2018-03-14T01:49:35.636Z,83.45
2018-03-14T01:52:03.892Z,84.60
2018-03-14T01:54:32.131Z,85.86
2018-03-14T01:57:00.388Z,86.77
2018-03-14T01:59:28.628Z,87.39
2018-03-14T02:01:56.892Z,87.62
2018-03-14T02:04:26.164Z,88.28
2018-03-14T02:06:54.408Z,88.37
2018-03-14T02:09:22.643Z,88.79
2018-03-14T02:11:51.664Z,88.87
2018-03-14T02:14:20.672Z,88.80
2018-03-14T02:16:48.932Z,88.52
2018-03-14T02:19:17.944Z,88.55
2018-03-14T02:21:46.213Z,88.33
2018-03-14T02:24:15.485Z,88.25
2018-03-14T02:26:43.716Z,88.56
2018-03-14T02:29:11.960Z,88.89
2018-03-14T02:31:40.213Z,88.93
2018-03-14T02:34:08.456Z,88.95
2018-03-14T02:36:54.292Z,89.02
2018-03-14T02:39:22.532Z,89.29
2018-03-14T02:41:50.787Z,89.01
2018-03-14T02:44:19.040Z,89.54
2018-03-14T02:46:49.292Z,89.03
2018-03-14T02:49:18.307Z,89.45
2018-03-14T02:51:46.544Z,89.14
2018-03-14T02:54:14.791Z,88.05
2018-03-14T02:56:43.028Z,88.13
2018-03-14T02:59:12.027Z,87.96
2018-03-14T03:01:40.292Z,88.23
2018-03-14T03:04:08.536Z,88.29
2018-03-14T03:06:36.776Z,87.66
2018-03-14T03:09:05.299Z,88.66
2018-03-14T03:11:33.543Z,86.81
2018-03-14T03:14:01.806Z,87.29
2018-03-14T03:16:30.816Z,87.66
2018-03-14T03:18:59.065Z,87.53
2018-03-14T03:21:27.312Z,88.65
2018-03-14T03:23:55.548Z,87.73
2018-03-14T03:26:24.568Z,88.05
2018-03-14T03:28:52.804Z,88.27
2018-03-14T03:31:21.057Z,88.05
2018-03-14T03:33:49.292Z,88.92
2018-03-14T03:36:17.540Z,88.81
2018-03-14T03:38:45.791Z,88.37
2018-03-14T03:41:14.043Z,87.96
2018-03-14T03:43:42.288Z,88.09
2018-03-14T03:46:10.559Z,88.07
2018-03-14T03:48:38.799Z,87.95
2018-03-14T03:51:07.044Z,88.61
2018-03-14T03:53:36.071Z,88.37
2018-03-14T03:56:04.329Z,88.95
2018-03-14T03:58:32.569Z,89.27
2018-03-14T04:01:00.820Z,88.89
2018-03-14T04:03:29.064Z,89.13
2018-03-14T04:05:58.080Z,89.01
2018-03-14T04:08:26.311Z,88.60
2018-03-14T04:10:54.576Z,88.66
2018-03-14T04:13:22.817Z,89.07
2018-03-14T04:15:51.060Z,89.35
2018-03-14T04:18:19.316Z,89.58
2018-03-14T04:20:47.558Z,89.34
2018-03-14T04:23:15.804Z,89.32
2018-03-14T04:25:44.832Z,89.34
2018-03-14T04:28:13.090Z,89.64
2018-03-14T04:30:42.094Z,89.86
2018-03-14T04:33:11.112Z,90.01
2018-03-14T04:35:39.355Z,89.83
2018-03-14T04:38:07.724Z,89.82
2018-03-14T04:40:35.984Z,89.63
2018-03-14T04:43:04.219Z,89.89
2018-03-14T04:45:32.476Z,89.64
2018-03-14T04:48:00.728Z,89.74
2018-03-14T04:50:28.977Z,90.01
2018-03-14T04:52:57.240Z,90.13
2018-03-14T04:55:26.256Z,86.77
2018-03-14T04:57:54.496Z,88.58
2018-03-14T05:00:23.515Z,89.28
2018-03-14T05:02:51.763Z,89.27
2018-03-14T05:05:20.034Z,89.67
2018-03-14T05:07:48.269Z,89.68
2018-03-14T05:10:16.519Z,89.34
2018-03-14T05:12:45.530Z,87.81
2018-03-14T05:15:14.560Z,88.97
2018-03-14T05:17:42.804Z,89.21
2018-03-14T05:20:13.059Z,89.61
2018-03-14T05:22:41.308Z,89.77
2018-03-14T05:25:10.325Z,90.33
2018-03-14T05:27:38.588Z,90.09
2018-03-14T05:30:07.591Z,90.09
2018-03-14T05:32:35.836Z,88.94
2018-03-14T05:35:04.092Z,89.25
2018-03-14T05:37:32.330Z,89.62
2018-03-14T05:40:01.343Z,88.31
2018-03-14T05:42:29.591Z,86.54
2018-03-14T05:44:58.612Z,87.01
2018-03-14T05:47:26.860Z,85.86
2018-03-14T05:49:55.112Z,85.57
2018-03-14T05:52:23.364Z,86.41
2018-03-14T05:54:51.609Z,86.66
2018-03-14T05:57:20.623Z,87.29
2018-03-14T05:59:48.880Z,87.89
2018-03-14T06:02:18.713Z,88.42
2018-03-14T06:04:48.964Z,86.99
2018-03-14T06:07:17.210Z,87.42
2018-03-14T06:09:46.232Z,87.67
2018-03-14T06:12:14.484Z,87.88
2018-03-14T06:14:43.504Z,86.83
2018-03-14T06:17:12.524Z,87.64
2018-03-14T06:19:40.764Z,86.78
2018-03-14T06:22:09.767Z,86.53
2018-03-14T06:24:38.594Z,86.58
2018-03-14T06:27:06.949Z,86.07
2018-03-14T06:29:35.943Z,85.39
2018-03-14T06:32:04.969Z,84.70
2018-03-14T06:34:33.217Z,83.69
2018-03-14T06:37:02.216Z,85.12
2018-03-14T06:39:31.252Z,84.25
2018-03-14T06:41:59.500Z,84.24
2018-03-14T06:44:27.752Z,85.14
2018-03-14T06:46:56.004Z,84.79
2018-03-14T06:49:24.239Z,85.45
2018-03-14T06:51:53.256Z,86.24
2018-03-14T06:54:21.510Z,86.16
2018-03-14T06:56:50.533Z,85.95
2018-03-14T06:59:36.392Z,86.00
2018-03-14T07:02:22.892Z,86.76
2018-03-14T07:05:09.472Z,86.32
2018-03-14T07:07:38.507Z,87.04
2018-03-14T07:10:06.765Z,86.65
2018-03-14T07:12:35.788Z,86.43
2018-03-14T07:15:04.040Z,86.15
2018-03-14T07:17:33.051Z,85.32
2018-03-14T07:20:01.310Z,84.69
2018-03-14T07:22:30.471Z,85.90
2018-03-14T07:24:58.717Z,85.81
2018-03-14T07:27:27.368Z,85.93
2018-03-14T07:29:55.636Z,86.28
2018-03-14T07:32:23.876Z,86.97
2018-03-14T07:34:52.116Z,86.66
2018-03-14T07:37:21.131Z,86.32
2018-03-14T07:39:50.214Z,86.11
2018-03-14T07:42:18.457Z,86.09
2018-03-14T07:44:46.712Z,85.64
2018-03-14T07:47:14.960Z,85.45
2018-03-14T07:49:43.968Z,84.83
2018-03-14T07:52:12.219Z,85.54
2018-03-14T07:54:40.470Z,85.45
2018-03-14T07:57:08.711Z,85.58
2018-03-14T07:59:36.968Z,85.29
2018-03-14T08:02:05.982Z,84.23
2018-03-14T08:04:35.111Z,85.15
2018-03-14T08:07:03.344Z,84.63
2018-03-14T08:09:32.353Z,84.34
2018-03-14T08:12:01.371Z,84.67
2018-03-14T08:14:29.615Z,84.59
2018-03-14T08:16:57.857Z,84.47
2018-03-14T08:19:26.109Z,84.10
2018-03-14T08:21:54.352Z,81.14
2018-03-14T08:24:22.599Z,75.42
2018-03-14T08:26:50.847Z,74.62
2018-03-14T08:29:19.083Z,72.39
2018-03-14T08:31:47.335Z,70.51
2018-03-14T08:34:15.590Z,69.72
2018-03-14T08:36:43.839Z,66.88
2018-03-14T08:39:12.851Z,62.38
2018-03-14T08:41:43.116Z,61.65
2018-03-14T08:44:11.374Z,66.49
2018-03-14T08:46:39.618Z,66.95
2018-03-14T08:49:07.867Z,65.46
2018-03-14T08:51:36.100Z,67.79
2018-03-14T08:54:04.368Z,65.48
2018-03-14T08:56:33.393Z,64.96
2018-03-14T08:59:01.702Z,64.09
2018-03-14T09:01:29.958Z,65.98
2018-03-14T09:03:58.216Z,64.34
2018-03-14T09:06:27.237Z,66.17
2018-03-14T09:08:55.491Z,66.19
2018-03-14T09:11:24.495Z,68.76
2018-03-14T09:13:53.511Z,69.42
2018-03-14T09:16:21.779Z,67.42
2018-03-14T09:18:50.777Z,67.98
2018-03-14T09:21:19.018Z,68.07
2018-03-14T09:23:47.279Z,67.27
2018-03-14T09:26:15.525Z,66.40
2018-03-14T09:28:43.782Z,64.49
2018-03-14T09:31:12.784Z,65.82
2018-03-14T09:33:41.912Z,63.03
2018-03-14T09:36:10.152Z,61.53
2018-03-14T09:38:39.157Z,59.72
2018-03-14T09:41:08.198Z,65.37
2018-03-14T09:43:36.452Z,61.33
2018-03-14T09:46:05.474Z,59.09
2018-03-14T09:48:33.712Z,59.45
2018-03-14T09:51:02.737Z,58.78
2018-03-14T09:53:31.009Z,62.68
2018-03-14T09:55:59.824Z,58.30
2018-03-14T09:58:28.085Z,58.51
2018-03-14T10:00:56.344Z,58.64
2018-03-14T10:03:25.352Z,59.38
2018-03-14T10:05:54.363Z,62.20
2018-03-14T10:08:22.625Z,63.29
2018-03-14T10:10:51.675Z,63.28
2018-03-14T10:13:19.911Z,63.67
2018-03-14T10:15:48.156Z,64.54
2018-03-14T10:18:16.449Z,61.68
2018-03-14T10:20:44.688Z,62.68
2018-03-14T10:23:12.948Z,60.77
2018-03-14T10:25:41.275Z,66.12
2018-03-14T10:28:09.447Z,64.69
2018-03-14T10:30:37.700Z,65.14
2018-03-14T10:33:05.944Z,65.85
2018-03-14T10:35:34.972Z,66.24
2018-03-14T10:38:03.218Z,63.41
2018-03-14T10:40:32.233Z,58.80
2018-03-14T10:43:00.502Z,57.73
2018-03-14T10:45:29.513Z,58.01
2018-03-14T10:47:57.793Z,57.18
2018-03-14T10:50:26.045Z,55.86
2018-03-14T10:52:55.057Z,50.10
2018-03-14T10:55:24.084Z,47.10
2018-03-14T10:57:52.355Z,49.19
2018-03-14T11:00:25.982Z,48.94
2018-03-14T11:02:59.769Z,53.03
2018-03-14T11:05:28.024Z,52.39
2018-03-14T11:07:57.041Z,42.04
2018-03-14T11:10:25.321Z,40.38
2018-03-14T11:12:53.567Z,40.94
2018-03-14T11:15:22.586Z,41.44
2018-03-14T11:17:50.860Z,36.03
2018-03-14T11:20:19.951Z,33.59
2018-03-14T11:22:49.405Z,35.36
2018-03-14T11:25:17.658Z,40.94
2018-03-14T11:27:45.911Z,40.87
2018-03-14T11:30:14.927Z,36.20
2018-03-14T11:32:43.940Z,38.05
2018-03-14T11:35:12.206Z,39.92
2018-03-14T11:37:41.213Z,39.90
2018-03-14T11:40:09.464Z,38.50
2018-03-14T11:42:38.491Z,37.50
2018-03-14T11:45:06.747Z,37.32
2018-03-14T11:47:35.770Z,37.27
2018-03-14T11:50:04.029Z,40.60
2018-03-14T11:52:33.059Z,37.03
2018-03-14T11:55:01.315Z,35.79
2018-03-14T11:57:31.575Z,34.78
2018-03-14T11:59:59.828Z,36.33
2018-03-14T12:02:28.087Z,35.71
2018-03-14T12:04:57.107Z,33.20
2018-03-14T12:07:25.414Z,33.90
2018-03-14T12:09:54.394Z,32.59
2018-03-14T12:12:22.682Z,31.29
2018-03-14T12:14:51.665Z,30.76
2018-03-14T12:17:19.928Z,33.72
2018-03-14T12:19:48.952Z,31.82
2018-03-14T12:22:22.612Z,34.92
2018-03-14T12:24:50.868Z,35.73
2018-03-14T12:27:19.120Z,33.90
2018-03-14T12:29:47.384Z,32.63
2018-03-14T12:32:15.648Z,33.18
2018-03-14T12:34:44.668Z,33.05
2018-03-14T12:37:12.908Z,37.82
2018-03-14T12:39:41.227Z,36.25
2018-03-14T12:42:09.483Z,36.80
2018-03-14T12:44:37.684Z,32.16
2018-03-14T12:47:05.973Z,28.17
2018-03-14T12:49:34.220Z,28.10
2018-03-14T12:52:03.253Z,26.97
2018-03-14T12:54:31.515Z,33.54
2018-03-14T12:57:00.545Z,33.22
2018-03-14T12:59:28.816Z,38.75
2018-03-14T13:01:57.071Z,37.12
2018-03-14T13:04:25.332Z,36.78
2018-03-14T13:06:53.576Z,34.40
2018-03-14T13:09:21.832Z,39.55
2018-03-14T13:11:50.145Z,43.03
2018-03-14T13:14:18.350Z,44.54
2018-03-14T13:16:46.601Z,41.08
2018-03-14T13:19:14.875Z,42.38
2018-03-14T13:21:43.119Z,44.73
2018-03-14T13:24:11.804Z,44.19
2018-03-14T13:26:40.837Z,40.15
2018-03-14T13:29:09.084Z,39.26
2018-03-14T13:31:38.098Z,38.29
2018-03-14T13:34:06.345Z,37.07
2018-03-14T13:36:35.370Z,42.22
2018-03-14T13:39:03.616Z,38.76
2018-03-14T13:41:32.612Z,35.77
2018-03-14T13:44:00.864Z,38.52
2018-03-14T13:46:29.128Z,41.85
2018-03-14T13:48:57.388Z,40.32
2018-03-14T13:51:25.632Z,41.88
2018-03-14T13:53:53.901Z,42.17
2018-03-14T13:56:22.152Z,41.94
2018-03-14T13:58:50.397Z,43.83
2018-03-14T14:01:18.664Z,46.63
2018-03-14T14:03:47.680Z,47.12
2018-03-14T14:06:15.924Z,47.38
2018-03-14T14:08:44.189Z,50.56
2018-03-14T14:11:12.440Z,49.62
2018-03-14T14:13:40.707Z,46.33
2018-03-14T14:16:08.968Z,42.48
2018-03-14T14:18:37.989Z,44.07
2018-03-14T14:21:06.237Z,45.52
2018-03-14T14:23:35.261Z,44.95
2018-03-14T14:26:03.512Z,44.83
2018-03-14T14:28:32.664Z,44.82
2018-03-14T14:31:02.396Z,45.18
2018-03-14T14:33:30.655Z,43.53
2018-03-14T14:35:58.917Z,45.24
2018-03-14T14:38:27.164Z,48.06
2018-03-14T14:40:55.458Z,46.60
2018-03-14T14:43:24.477Z,45.99
2018-03-14T14:45:52.725Z,49.06
2018-03-14T14:48:20.984Z,50.12
2018-03-14T14:50:49.824Z,50.48
2018-03-14T14:53:18.081Z,49.05
2018-03-14T14:55:46.335Z,49.22
2018-03-14T14:58:14.585Z,50.49
2018-03-14T15:00:42.836Z,51.80
2018-03-14T15:03:11.875Z,51.96
2018-03-14T15:05:40.112Z,51.42
2018-03-14T15:08:09.124Z,51.95
2018-03-14T15:10:37.376Z,53.70
2018-03-14T15:13:06.386Z,49.09
2018-03-14T15:15:35.408Z,47.41
2018-03-14T15:18:03.652Z,47.35
2018-03-14T15:20:32.692Z,47.09
2018-03-14T15:23:00.968Z,45.56
2018-03-14T15:25:29.213Z,46.91
2018-03-14T15:27:58.288Z,50.50
2018-03-14T15:30:26.480Z,51.33
2018-03-14T15:32:54.743Z,49.69
2018-03-14T15:35:23.189Z,48.29
2018-03-14T15:37:51.466Z,51.69
2018-03-14T15:40:20.481Z,48.93
2018-03-14T15:42:50.001Z,48.22
2018-03-14T15:45:19.066Z,52.23
2018-03-14T15:47:47.307Z,52.25
2018-03-14T15:50:15.561Z,53.49
2018-03-14T15:52:43.816Z,51.23
2018-03-14T15:55:12.076Z,53.48
2018-03-14T15:57:41.085Z,55.05
2018-03-14T16:00:09.327Z,55.65
2018-03-14T16:02:37.580Z,57.37
2018-03-14T16:05:05.822Z,56.22
2018-03-14T16:07:34.068Z,56.17
2018-03-14T16:10:02.320Z,57.28
2018-03-14T16:12:30.565Z,57.20
2018-03-14T16:14:58.800Z,58.10
2018-03-14T16:17:27.059Z,58.63
2018-03-14T16:19:55.316Z,58.46
2018-03-14T16:22:23.551Z,59.56
2018-03-14T16:24:52.572Z,60.14
2018-03-14T16:27:21.583Z,59.95
2018-03-14T16:29:49.832Z,60.93
2018-03-14T16:32:18.844Z,60.86
2018-03-14T16:34:47.868Z,61.55
2018-03-14T16:37:16.158Z,64.35
2018-03-14T16:39:44.389Z,64.16
2018-03-14T16:42:12.640Z,63.26
2018-03-14T16:44:40.941Z,64.23
2018-03-14T16:47:09.124Z,65.56
2018-03-14T16:49:38.152Z,65.35
2018-03-14T16:52:06.392Z,65.09
2018-03-14T16:54:34.642Z,65.89
2018-03-14T16:57:02.875Z,66.25
2018-03-14T16:59:31.897Z,66.21
2018-03-14T17:02:00.184Z,64.41
2018-03-14T17:04:28.422Z,65.47
2018-03-14T17:06:57.427Z,68.33
2018-03-14T17:09:26.444Z,69.66
2018-03-14T17:11:54.679Z,70.41
2018-03-14T17:14:27.280Z,70.80
2018-03-14T17:16:51.176Z,71.68
2018-03-14T17:19:20.184Z,72.31
2018-03-14T17:21:48.428Z,72.97
2018-03-14T17:24:16.675Z,74.56
2018-03-14T17:26:44.937Z,75.53
2018-03-14T17:29:13.176Z,76.07
2018-03-14T17:31:42.201Z,75.91
2018-03-14T17:34:10.442Z,77.29
2018-03-14T17:36:38.679Z,78.32
2018-03-14T17:39:06.935Z,77.87
2018-03-14T17:41:35.184Z,78.81
2018-03-14T17:44:03.424Z,79.39
2018-03-14T17:46:31.820Z,79.50
2018-03-14T17:49:00.075Z,79.92
2018-03-14T17:51:28.358Z,80.43
2018-03-14T17:53:57.356Z,80.23
2018-03-14T17:56:25.589Z,81.16
2018-03-14T17:58:54.605Z,81.89
2018-03-14T18:01:23.840Z,81.95
2018-03-14T18:03:52.091Z,82.61
2018-03-14T18:06:22.349Z,83.16
2018-03-14T18:08:50.605Z,81.96
2018-03-14T18:11:18.852Z,82.98
2018-03-14T18:13:47.096Z,82.43
2018-03-14T18:16:15.479Z,83.52
2018-03-14T18:18:43.736Z,84.56
2018-03-14T18:21:11.986Z,84.13
2018-03-14T18:23:41.008Z,83.71
2018-03-14T18:26:09.250Z,84.38
2018-03-14T18:28:37.493Z,84.61
2018-03-14T18:31:05.755Z,85.02
2018-03-14T18:33:34.006Z,85.74
2018-03-14T18:36:03.025Z,86.20
2018-03-14T18:38:31.324Z,86.78
2018-03-14T18:41:00.306Z,86.08
2018-03-14T18:43:28.572Z,86.30
2018-03-14T18:45:57.576Z,87.13
2018-03-14T18:48:26.844Z,86.66
2018-03-14T18:50:55.128Z,86.98
2018-03-14T18:53:23.379Z,87.06
2018-03-14T18:55:51.625Z,86.94
2018-03-14T18:58:20.760Z,87.35
2018-03-14T19:00:50.850Z,88.36
2018-03-14T19:03:19.091Z,87.53
2018-03-14T19:05:47.341Z,87.47
2018-03-14T19:08:15.600Z,87.21
2018-03-14T19:10:43.847Z,87.81
2018-03-14T19:13:12.862Z,87.97
2018-03-14T19:15:41.119Z,88.46
2018-03-14T19:18:10.132Z,88.65
2018-03-14T19:20:38.391Z,88.98
2018-03-14T19:23:07.424Z,88.75
2018-03-14T19:25:35.664Z,88.57
2018-03-14T19:28:03.916Z,89.23
2018-03-14T19:30:32.184Z,89.30
2018-03-14T19:33:00.428Z,88.82
2018-03-14T19:35:29.437Z,88.59
2018-03-14T19:37:57.700Z,88.71
2018-03-14T19:40:26.703Z,88.87
2018-03-14T19:42:54.948Z,88.74
2018-03-14T19:45:23.229Z,88.99
2018-03-14T19:47:51.470Z,89.08
2018-03-14T19:50:19.711Z,89.34
2018-03-14T19:52:48.732Z,89.57
2018-03-14T19:55:16.979Z,89.49
2018-03-14T19:57:45.223Z,89.50
2018-03-14T20:00:13.489Z,89.32
2018-03-14T20:02:41.759Z,89.68
2018-03-14T20:05:10.020Z,89.75
2018-03-14T20:07:39.040Z,90.45
2018-03-14T20:10:07.290Z,90.25
2018-03-14T20:12:36.323Z,90.21
2018-03-14T20:15:04.564Z,90.60
2018-03-14T20:17:33.583Z,90.55
2018-03-14T20:20:02.711Z,91.41
2018-03-14T20:22:31.681Z,91.45
2018-03-14T20:24:59.932Z,89.54
2018-03-14T20:27:28.204Z,90.87
2018-03-14T20:29:56.453Z,90.95
2018-03-14T20:32:24.692Z,91.04
2018-03-14T20:34:52.963Z,90.80
2018-03-14T20:37:21.968Z,89.12
2018-03-14T20:39:50.982Z,90.08
2018-03-14T20:42:19.246Z,90.45
2018-03-14T20:44:48.268Z,91.08
2018-03-14T20:47:16.521Z,91.57
2018-03-14T20:49:45.523Z,91.31
2018-03-14T20:52:13.787Z,91.05
2018-03-14T20:54:42.813Z,91.20
2018-03-14T20:57:11.060Z,91.45
2018-03-14T20:59:39.316Z,91.51
2018-03-14T21:02:07.569Z,91.72
2018-03-14T21:04:35.828Z,91.78
2018-03-14T21:07:04.093Z,91.61
2018-03-14T21:09:33.129Z,91.29
2018-03-14T21:12:02.109Z,91.38
2018-03-14T21:14:30.418Z,91.53
2018-03-14T21:16:59.396Z,91.52
2018-03-14T21:19:27.640Z,91.01
2018-03-14T21:21:56.672Z,91.47
2018-03-14T21:24:24.934Z,91.60
2018-03-14T21:26:53.952Z,91.68
2018-03-14T21:29:22.208Z,90.74
2018-03-14T21:31:51.238Z,92.09
2018-03-14T21:34:19.487Z,91.81
2018-03-14T21:36:48.400Z,91.94
2018-03-14T21:39:16.720Z,92.11
2018-03-14T21:41:44.944Z,91.94
2018-03-14T21:44:13.977Z,92.07
2018-03-14T21:46:42.251Z,92.12
2018-03-14T21:49:10.504Z,92.19
2018-03-14T21:51:38.760Z,92.40
2018-03-14T21:54:07.044Z,92.40
2018-03-14T21:56:35.291Z,92.28
2018-03-14T21:59:03.589Z,92.12
2018-03-14T22:01:31.968Z,92.04
2018-03-14T22:04:00.225Z,92.02
2018-03-14T22:06:28.477Z,91.89
2018-03-14T22:08:56.751Z,91.78
2018-03-14T22:11:25.021Z,91.57
2018-03-14T22:13:54.046Z,92.04
2018-03-14T22:16:22.452Z,92.52
2018-03-14T22:18:50.703Z,92.67
2018-03-14T22:21:18.958Z,92.06
2018-03-14T22:23:48.000Z,92.62
2018-03-14T22:26:16.251Z,91.99
2018-03-14T22:28:45.240Z,92.53
2018-03-14T22:31:14.283Z,92.36
2018-03-14T22:33:42.530Z,92.74
2018-03-14T22:36:10.780Z,92.93
2018-03-14T22:38:39.052Z,93.03
2018-03-14T22:41:07.308Z,93.23
2018-03-14T22:43:35.569Z,93.13
2018-03-14T22:46:03.844Z,93.21
2018-03-14T22:48:32.111Z,93.26
2018-03-14T22:51:00.367Z,93.25
2018-03-14T22:53:28.644Z,93.38
2018-03-14T22:55:56.895Z,93.01
2018-03-14T22:58:25.159Z,92.88
2018-03-14T23:00:53.429Z,92.76
2018-03-14T23:03:21.691Z,92.85
2018-03-14T23:05:49.956Z,92.90
2018-03-14T23:08:18.992Z,92.98
2018-03-14T23:10:47.243Z,92.77
2018-03-14T23:13:15.516Z,92.75
2018-03-14T23:15:44.532Z,92.79
2018-03-14T23:18:12.793Z,93.17
2018-03-14T23:20:41.832Z,92.87
2018-03-14T23:23:10.104Z,92.60
2018-03-14T23:25:38.352Z,92.75
2018-03-14T23:28:07.388Z,92.99
2018-03-14T23:30:35.653Z,93.16
2018-03-14T23:33:03.920Z,93.06
2018-03-14T23:35:32.932Z,93.17
2018-03-14T23:38:01.201Z,93.45
2018-03-14T23:40:30.225Z,93.71
2018-03-14T23:42:58.638Z,93.62
2018-03-14T23:45:26.896Z,93.56
2018-03-14T23:47:55.144Z,93.68
2018-03-14T23:50:23.928Z,93.75
2018-03-14T23:52:52.970Z,93.73
2018-03-14T23:55:21.225Z,93.69
2018-03-14T23:57:49.483Z,94.10
